EST,Max TemperatureF,Mean TemperatureF,Min TemperatureF,Max Dew PointF,MeanDew PointF,Min DewpointF,Max Humidity, Mean Humidity, Min Humidity, Max Sea Level PressureIn, Mean Sea Level PressureIn, Min Sea Level PressureIn, Max VisibilityMiles, Mean VisibilityMiles, Min VisibilityMiles, Max Wind SpeedMPH, Mean Wind SpeedMPH, Max Gust SpeedMPH,PrecipitationIn, CloudCover, Events, WindDirDegrees
2013-1-1,32,21,9,27,12,0,85,68,50,29.91,29.79,29.68,10,9,2,14,9,28,0.00,4,,311
2013-1-2,18,7,-4,12,3,-11,91,78,64,30.17,29.95,29.85,10,9,1,15,7,21,0.00,5,,299
2013-1-3,10,-2,-15,9,-9,-20,100,66,31,30.19,30.08,29.90,10,10,8,7,2,,0.00,3,,133
2013-1-4,32,22,12,25,19,7,91,75,58,29.89,29.83,29.77,10,9,2,15,8,22,0.00,8,,237
2013-1-5,34,26,18,23,16,10,85,66,47,30.21,30.06,29.81,10,10,6,16,9,27,0.00,4,,315
2013-1-6,36,26,16,30,22,9,92,79,66,30.16,29.97,29.88,10,9,2,12,6,16,0.00,7,,197
2013-1-7,36,23,10,27,13,7,96,76,55,30.34,30.24,29.93,10,10,8,15,7,16,0.00,4,,32
2013-1-8,37,23,9,19,15,1,92,68,44,30.35,30.27,30.21,10,10,9,14,5,,0.00,0,,173
2013-1-9,45,32,19,30,21,16,91,70,49,30.35,30.14,29.93,10,10,9,18,11,30,0.00,3,,171
2013-1-10,39,32,25,30,22,19,88,68,48,30.54,30.37,30.04,10,10,9,23,9,33,0.00,3,,302
2013-1-11,37,29,21,32,23,18,89,67,44,30.53,30.30,30.10,10,10,10,18,11,25,0.02,4,,139
2013-1-12,46,40,34,39,35,30,96,86,76,30.14,30.09,30.06,10,10,2,16,8,18,0.00,5,,127
2013-1-13,52,43,34,43,37,30,100,86,71,30.12,30.00,29.90,10,8,0,9,4,,0.00,7,,135
2013-1-14,48,39,30,45,31,19,93,69,45,30.27,30.07,29.80,10,10,5,15,8,20,0.00,3,,322
2013-1-15,34,31,27,25,21,18,85,70,54,30.31,30.26,30.20,10,10,10,6,2,,0.00,5,,59
2013-1-16,32,30,27,28,25,18,100,82,63,30.20,29.95,29.79,10,7,1,10,4,,0.03,8,,178
2013-1-17,36,23,10,27,14,0,78,62,46,30.12,29.96,29.79,10,10,2,12,7,23,0.00,6,,308
2013-1-18,19,10,1,7,-2,-8,79,57,34,30.32,30.25,30.09,10,10,9,13,6,20,0.00,2,,327
2013-1-19,41,29,16,23,16,5,77,56,34,30.21,29.98,29.76,10,10,5,14,6,20,0.00,8,,144
2013-1-20,46,32,18,32,15,-2,70,54,37,29.93,29.66,29.46,10,10,3,25,16,41,0.01,4,,237
2013-1-21,21,17,12,16,4,-4,92,67,42,30.02,29.91,29.74,10,9,2,18,6,33,0.00,6,,300
2013-1-22,18,13,7,10,3,-11,92,72,51,30.01,29.87,29.74,10,9,2,15,6,21,0.00,6,,308
2013-1-23,7,1,-6,-2,-17,-29,79,56,32,30.10,30.07,30.00,10,10,10,16,9,24,0.00,0,,335
2013-1-24,10,1,-9,-9,-18,-29,100,63,26,30.27,30.14,30.08,10,10,10,15,5,22,0.00,0,,321
2013-1-25,10,4,-2,9,-11,-27,80,54,28,30.33,30.21,30.03,10,9,3,7,4,,0.00,2,,343
2013-1-26,12,8,3,5,-2,-8,96,69,42,30.24,30.11,30.01,10,9,3,13,6,20,0.00,4,,335
2013-1-27,19,10,0,3,0,-6,100,72,43,30.45,30.39,30.25,10,10,5,9,3,,0.00,1,,339
2013-1-28,23,15,7,19,10,0,92,74,56,30.43,30.20,29.95,10,7,0,15,7,21,0.01,7,,142
2013-1-29,34,29,23,30,24,18,89,82,74,30.13,30.05,29.97,10,9,5,21,10,28,0.03,8,,130
2013-1-30,61,48,34,54,44,30,100,86,72,30.00,29.60,29.30,10,10,5,22,14,30,0.08,7,,137
2013-1-31,54,38,21,52,28,5,100,70,39,29.54,29.22,28.84,10,9,2,22,14,41,1.06,8,,235